createdAt,value
2023-05-09T00:00:21.313Z,9.95
2023-05-09T00:02:48.819Z,9.85
2023-05-09T00:05:16.697Z,9.67
2023-05-09T00:07:44.420Z,9.60
2023-05-09T00:10:11.963Z,9.84
2023-05-09T00:12:39.583Z,9.65
2023-05-09T00:15:08.536Z,9.85
2023-05-09T00:17:38.537Z,9.40
2023-05-09T00:20:10.949Z,9.47
2023-05-09T00:22:38.915Z,9.49
2023-05-09T00:25:07.735Z,9.21
2023-05-09T00:27:35.253Z,9.18
2023-05-09T00:30:03.043Z,9.12
2023-05-09T00:32:30.778Z,9.00
2023-05-09T00:34:59.643Z,9.06
2023-05-09T00:37:27.181Z,9.20
2023-05-09T00:39:54.674Z,9.19
2023-05-09T00:42:22.186Z,9.07
2023-05-09T00:44:49.679Z,8.95
2023-05-09T00:47:17.167Z,9.21
2023-05-09T00:49:44.732Z,8.97
2023-05-09T00:52:13.583Z,9.04
2023-05-09T00:54:41.150Z,8.95
2023-05-09T00:57:08.630Z,9.00
2023-05-09T00:59:36.094Z,8.90
2023-05-09T01:02:03.574Z,8.80
2023-05-09T01:04:31.080Z,8.92
2023-05-09T01:07:03.561Z,8.93
2023-05-09T01:09:39.651Z,8.79
2023-05-09T01:12:13.419Z,8.95
2023-05-09T01:14:45.735Z,8.79
2023-05-09T01:17:18.010Z,8.74
2023-05-09T01:19:56.649Z,8.88
2023-05-09T01:22:27.764Z,8.77
2023-05-09T01:25:08.611Z,8.63
2023-05-09T01:27:45.141Z,8.42
2023-05-09T01:30:14.806Z,8.45
2023-05-09T01:32:44.124Z,8.41
2023-05-09T01:35:14.700Z,8.54
2023-05-09T01:37:44.188Z,8.55
2023-05-09T01:40:14.992Z,8.56
2023-05-09T01:42:45.469Z,8.36
2023-05-09T01:45:15.701Z,8.40
2023-05-09T01:47:44.140Z,8.16
2023-05-09T01:50:12.694Z,8.16
2023-05-09T01:52:41.158Z,8.20
2023-05-09T01:55:10.138Z,8.65
2023-05-09T01:57:38.498Z,8.33
2023-05-09T02:00:07.927Z,8.60
2023-05-09T02:02:37.249Z,8.48
2023-05-09T02:05:05.202Z,8.71
2023-05-09T02:07:33.358Z,8.49
2023-05-09T02:10:01.669Z,8.38
2023-05-09T02:12:29.390Z,8.39
2023-05-09T02:14:56.873Z,8.23
2023-05-09T02:17:24.456Z,8.39
2023-05-09T02:19:53.297Z,8.09
2023-05-09T02:22:20.955Z,8.01
2023-05-09T02:24:48.472Z,8.18
2023-05-09T02:27:16.607Z,8.02
2023-05-09T02:29:47.595Z,7.93
2023-05-09T02:32:17.415Z,8.08
2023-05-09T02:34:44.979Z,8.17
2023-05-09T02:37:15.284Z,8.10
2023-05-09T02:39:42.740Z,7.99
2023-05-09T02:42:11.417Z,7.93
2023-05-09T02:44:39.701Z,7.89
2023-05-09T02:47:07.871Z,8.34
2023-05-09T02:49:35.583Z,7.87
2023-05-09T02:52:03.062Z,8.17
2023-05-09T02:54:31.892Z,8.11
2023-05-09T02:57:00.054Z,8.16
2023-05-09T02:59:27.778Z,7.97
2023-05-09T03:01:55.463Z,7.85
2023-05-09T03:04:22.977Z,7.71
2023-05-09T03:06:50.513Z,8.21
2023-05-09T03:09:18.091Z,7.68
2023-05-09T03:11:46.965Z,7.84
2023-05-09T03:14:15.296Z,7.97
2023-05-09T03:16:42.790Z,7.74
2023-05-09T03:19:10.525Z,7.53
2023-05-09T03:21:38.010Z,7.78
2023-05-09T03:24:06.035Z,7.72
2023-05-09T03:26:35.613Z,7.51
2023-05-09T03:29:04.546Z,7.56
2023-05-09T03:31:32.197Z,7.57
2023-05-09T03:33:59.746Z,7.51
2023-05-09T03:36:27.469Z,7.38
2023-05-09T03:38:54.980Z,7.26
2023-05-09T03:41:22.466Z,7.49
2023-05-09T03:43:49.966Z,7.67
2023-05-09T03:46:18.799Z,7.97
2023-05-09T03:48:46.300Z,7.63
2023-05-09T03:51:13.786Z,7.64
2023-05-09T03:53:41.281Z,7.52
2023-05-09T03:56:09.283Z,7.84
2023-05-09T03:58:36.795Z,7.75
2023-05-09T04:01:04.375Z,7.61
2023-05-09T04:03:33.565Z,7.82
2023-05-09T04:06:01.245Z,7.58
2023-05-09T04:08:28.810Z,7.81
2023-05-09T04:10:56.282Z,7.59
2023-05-09T04:13:23.820Z,7.53
2023-05-09T04:15:51.454Z,7.83
2023-05-09T04:18:18.947Z,7.88
2023-05-09T04:20:47.733Z,8.47
2023-05-09T04:23:15.225Z,7.94
2023-05-09T04:25:42.909Z,7.74
2023-05-09T04:28:10.387Z,7.89
2023-05-09T04:30:38.048Z,7.97
2023-05-09T04:33:05.660Z,8.06
2023-05-09T04:35:33.208Z,8.12
2023-05-09T04:38:02.102Z,8.08
2023-05-09T04:40:29.560Z,7.88
2023-05-09T04:42:58.939Z,7.96
2023-05-09T04:45:26.677Z,8.60
2023-05-09T04:47:54.182Z,8.08
2023-05-09T04:50:21.879Z,8.32
2023-05-09T04:52:49.365Z,8.27
2023-05-09T04:55:18.378Z,8.13
2023-05-09T04:57:45.825Z,8.37
2023-05-09T05:00:16.008Z,8.32
2023-05-09T05:02:43.505Z,8.37
2023-05-09T05:05:12.382Z,8.17
2023-05-09T05:07:40.481Z,8.20
2023-05-09T05:10:09.056Z,8.49
2023-05-09T05:12:37.884Z,8.24
2023-05-09T05:15:06.446Z,8.27
2023-05-09T05:17:33.924Z,8.94
2023-05-09T05:20:01.412Z,9.55
2023-05-09T05:22:30.832Z,8.99
2023-05-09T05:24:59.687Z,8.72
2023-05-09T05:27:27.151Z,9.00
2023-05-09T05:29:55.998Z,8.82
2023-05-09T05:32:23.512Z,9.31
2023-05-09T05:34:51.024Z,9.19
2023-05-09T05:37:18.640Z,9.41
2023-05-09T05:39:46.130Z,9.43
2023-05-09T05:42:13.596Z,9.47
2023-05-09T05:44:41.153Z,9.49
2023-05-09T05:47:09.936Z,9.41
2023-05-09T05:49:37.392Z,9.62
2023-05-09T05:52:05.210Z,9.59
2023-05-09T05:54:32.690Z,10.02
2023-05-09T05:57:00.175Z,9.95
2023-05-09T05:59:27.715Z,10.39
2023-05-09T06:01:55.262Z,10.50
2023-05-09T06:04:24.042Z,10.28
2023-05-09T06:06:51.784Z,10.12
2023-05-09T06:09:19.480Z,10.31
2023-05-09T06:11:47.018Z,10.59
2023-05-09T06:14:14.568Z,10.45
2023-05-09T06:16:42.482Z,10.77
2023-05-09T06:19:10.063Z,10.80
2023-05-09T06:21:38.848Z,10.90
2023-05-09T06:24:12.202Z,11.31
2023-05-09T06:26:44.597Z,12.05
2023-05-09T06:29:12.065Z,11.78
2023-05-09T06:31:40.834Z,12.99
2023-05-09T06:34:08.767Z,11.94
2023-05-09T06:36:36.339Z,11.55
2023-05-09T06:39:05.300Z,12.67
2023-05-09T06:41:32.739Z,13.24
2023-05-09T06:44:02.376Z,13.30
2023-05-09T06:46:29.911Z,14.59
2023-05-09T06:48:57.409Z,14.91
2023-05-09T06:51:24.891Z,14.03
2023-05-09T06:53:52.394Z,13.36
2023-05-09T06:56:22.689Z,12.98
2023-05-09T06:58:50.391Z,13.09
2023-05-09T07:01:17.955Z,13.17
2023-05-09T07:03:46.948Z,12.97
2023-05-09T07:06:14.594Z,13.10
2023-05-09T07:08:42.080Z,13.40
2023-05-09T07:11:09.582Z,13.30
2023-05-09T07:13:38.356Z,13.20
2023-05-09T07:16:06.632Z,13.41
2023-05-09T07:18:34.217Z,14.50
2023-05-09T07:21:01.686Z,13.64
2023-05-09T07:23:29.173Z,14.94
2023-05-09T07:25:58.409Z,14.58
2023-05-09T07:28:26.091Z,15.31
2023-05-09T07:30:56.292Z,17.19
2023-05-09T07:33:23.902Z,15.89
2023-05-09T07:35:52.899Z,15.97
2023-05-09T07:38:20.394Z,18.11
2023-05-09T07:40:47.918Z,15.89
2023-05-09T07:43:15.430Z,15.58
2023-05-09T07:45:42.958Z,15.23
2023-05-09T07:48:12.487Z,14.85
2023-05-09T07:50:40.695Z,15.83
2023-05-09T07:53:08.172Z,15.37
2023-05-09T07:55:36.363Z,15.33
2023-05-09T07:58:03.819Z,15.33
2023-05-09T08:00:31.404Z,14.35
2023-05-09T08:02:58.964Z,16.37
2023-05-09T08:05:27.923Z,14.74
2023-05-09T08:07:55.410Z,15.88
2023-05-09T08:10:23.425Z,15.24
2023-05-09T08:12:51.321Z,15.33
2023-05-09T08:15:18.890Z,16.49
2023-05-09T08:17:46.395Z,15.74
2023-05-09T08:20:14.104Z,16.32
2023-05-09T08:22:43.015Z,16.17
2023-05-09T08:25:11.012Z,15.42
2023-05-09T08:27:38.537Z,16.26
2023-05-09T08:30:07.586Z,16.05
2023-05-09T08:32:35.134Z,15.44
2023-05-09T08:35:02.707Z,18.09
2023-05-09T08:37:30.374Z,16.59
2023-05-09T08:39:59.181Z,16.50
2023-05-09T08:42:27.029Z,16.30
2023-05-09T08:44:54.521Z,15.77
2023-05-09T08:47:23.102Z,16.71
2023-05-09T08:49:51.192Z,17.62
2023-05-09T08:52:19.092Z,16.43
2023-05-09T08:54:46.694Z,15.57
2023-05-09T08:57:16.299Z,15.24
2023-05-09T08:59:43.845Z,17.30
2023-05-09T09:02:14.380Z,16.82
2023-05-09T09:04:42.063Z,16.61
2023-05-09T09:07:10.860Z,16.84
2023-05-09T09:09:38.424Z,16.50
2023-05-09T09:12:07.980Z,18.12
2023-05-09T09:14:39.797Z,16.98
2023-05-09T09:17:09.076Z,16.47
2023-05-09T09:19:38.210Z,19.89
2023-05-09T09:22:05.848Z,19.28
2023-05-09T09:24:33.426Z,17.18
2023-05-09T09:27:06.140Z,17.38
2023-05-09T09:29:34.672Z,17.52
2023-05-09T09:32:06.055Z,17.39
2023-05-09T09:34:33.672Z,17.45
2023-05-09T09:37:01.170Z,17.73
2023-05-09T09:39:29.581Z,18.41
2023-05-09T09:41:57.080Z,18.17
2023-05-09T09:44:24.595Z,17.36
2023-05-09T09:46:53.344Z,17.23
2023-05-09T09:49:23.461Z,17.41
2023-05-09T09:51:52.246Z,17.15
2023-05-09T09:54:19.763Z,17.43
2023-05-09T09:56:48.686Z,18.75
2023-05-09T09:59:17.415Z,16.84
2023-05-09T10:01:56.154Z,17.24
2023-05-09T10:04:25.813Z,17.66
2023-05-09T10:06:54.541Z,18.30
2023-05-09T10:09:23.025Z,18.38
2023-05-09T10:11:52.151Z,18.40
2023-05-09T10:14:20.276Z,18.41
2023-05-09T10:16:49.141Z,18.35
2023-05-09T10:19:19.529Z,17.98
2023-05-09T10:21:52.119Z,19.93
2023-05-09T10:24:23.958Z,19.33
2023-05-09T10:26:51.705Z,19.31
2023-05-09T10:29:22.987Z,18.74
2023-05-09T10:31:52.080Z,18.94
2023-05-09T10:34:20.949Z,18.57
2023-05-09T10:36:50.374Z,19.80
2023-05-09T10:39:18.503Z,19.52
2023-05-09T10:41:46.081Z,19.69
2023-05-09T10:44:13.673Z,18.84
2023-05-09T10:46:41.235Z,19.44
2023-05-09T10:49:09.681Z,18.36
2023-05-09T10:51:37.197Z,18.41
2023-05-09T10:54:14.281Z,19.03
2023-05-09T10:56:41.756Z,19.06
2023-05-09T10:59:37.338Z,19.03
2023-05-09T11:02:05.579Z,19.19
2023-05-09T11:04:33.591Z,20.28
2023-05-09T11:07:01.492Z,20.30
2023-05-09T11:09:35.473Z,20.15
2023-05-09T11:12:09.800Z,20.58
2023-05-09T11:14:42.932Z,20.35
2023-05-09T11:17:12.183Z,19.25
2023-05-09T11:19:59.252Z,19.68
2023-05-09T11:22:30.056Z,19.75
2023-05-09T11:25:05.487Z,19.26
2023-05-09T11:27:44.246Z,19.35
2023-05-09T11:30:14.314Z,19.53
2023-05-09T11:32:44.490Z,19.61
2023-05-09T11:35:14.717Z,20.42
2023-05-09T11:37:48.009Z,19.54
2023-05-09T11:40:18.391Z,21.41
2023-05-09T11:42:49.289Z,20.80
2023-05-09T11:45:17.882Z,19.89
2023-05-09T11:47:46.354Z,19.70
2023-05-09T11:50:15.325Z,20.68
2023-05-09T11:52:43.317Z,20.18
2023-05-09T11:55:12.768Z,20.01
2023-05-09T11:57:44.203Z,20.64
2023-05-09T12:00:12.734Z,20.09
2023-05-09T12:02:40.397Z,20.00
2023-05-09T12:05:09.751Z,20.59
2023-05-09T12:07:37.693Z,19.95
2023-05-09T12:10:07.558Z,19.97
2023-05-09T12:12:35.552Z,20.03
2023-05-09T12:15:07.742Z,20.44
2023-05-09T12:17:35.134Z,21.66
2023-05-09T12:20:04.726Z,20.34
2023-05-09T12:22:32.530Z,20.58
2023-05-09T12:25:02.318Z,20.40
2023-05-09T12:27:30.134Z,20.41
2023-05-09T12:29:57.686Z,20.62
2023-05-09T12:32:31.661Z,19.92
2023-05-09T12:34:59.371Z,20.68
2023-05-09T12:37:27.031Z,21.77
2023-05-09T12:40:06.070Z,20.60
2023-05-09T12:42:34.050Z,21.37
2023-05-09T12:45:02.798Z,21.14
2023-05-09T12:47:32.997Z,20.59
2023-05-09T12:50:00.666Z,22.55
2023-05-09T12:52:34.662Z,21.30
2023-05-09T12:55:07.120Z,20.21
2023-05-09T12:57:34.644Z,20.72
2023-05-09T13:00:04.224Z,21.22
2023-05-09T13:02:36.805Z,20.74
2023-05-09T13:05:10.302Z,20.47
2023-05-09T13:07:41.488Z,22.39
2023-05-09T13:10:12.950Z,21.11
2023-05-09T13:12:44.492Z,20.64
2023-05-09T13:15:12.873Z,21.30
2023-05-09T13:17:41.956Z,20.66
2023-05-09T13:20:10.636Z,20.68
2023-05-09T13:22:38.378Z,20.97
2023-05-09T13:25:06.643Z,21.35
2023-05-09T13:27:34.601Z,21.43
2023-05-09T13:30:02.150Z,22.75
2023-05-09T13:32:29.675Z,21.57
2023-05-09T13:34:58.698Z,21.23
2023-05-09T13:37:27.591Z,20.60
2023-05-09T13:39:55.364Z,20.90
2023-05-09T13:42:22.853Z,20.79
2023-05-09T13:44:50.514Z,20.40
2023-05-09T13:47:17.965Z,21.36
2023-05-09T13:49:45.524Z,20.93
2023-05-09T13:52:15.671Z,21.67
2023-05-09T13:54:43.181Z,20.38
2023-05-09T13:57:10.864Z,21.12
2023-05-09T13:59:38.613Z,22.77
2023-05-09T14:02:06.141Z,20.81
2023-05-09T14:04:33.700Z,20.94
2023-05-09T14:07:01.723Z,20.94
2023-05-09T14:09:30.698Z,21.91
2023-05-09T14:11:58.430Z,20.82
2023-05-09T14:14:26.322Z,21.47
2023-05-09T14:16:53.971Z,21.24
2023-05-09T14:19:21.451Z,21.11
2023-05-09T14:21:48.991Z,22.19
2023-05-09T14:24:16.642Z,19.89
2023-05-09T14:26:46.564Z,21.07
2023-05-09T14:29:14.063Z,21.38
2023-05-09T14:31:41.663Z,21.39
2023-05-09T14:34:09.462Z,21.06
2023-05-09T14:36:37.460Z,21.20
2023-05-09T14:39:06.036Z,21.60
2023-05-09T14:41:33.582Z,20.36
2023-05-09T14:44:02.434Z,20.99
2023-05-09T14:46:29.998Z,22.20
2023-05-09T14:49:03.877Z,21.82
2023-05-09T14:51:31.677Z,21.60
2023-05-09T14:53:59.143Z,20.63
2023-05-09T14:56:26.688Z,21.11
2023-05-09T14:58:54.173Z,22.60
2023-05-09T15:01:23.465Z,20.82
2023-05-09T15:03:51.023Z,20.75
2023-05-09T15:06:18.530Z,19.94
2023-05-09T15:08:46.040Z,21.20
2023-05-09T15:11:13.506Z,21.37
2023-05-09T15:13:40.988Z,21.40
2023-05-09T15:16:08.706Z,21.12
2023-05-09T15:18:37.586Z,20.60
2023-05-09T15:21:05.563Z,21.43
2023-05-09T15:23:33.616Z,22.50
2023-05-09T15:26:01.202Z,20.64
2023-05-09T15:28:28.707Z,20.85
2023-05-09T15:30:57.903Z,20.31
2023-05-09T15:33:25.780Z,20.49
2023-05-09T15:35:58.131Z,20.35
2023-05-09T15:38:25.919Z,20.63
2023-05-09T15:40:54.483Z,20.75
2023-05-09T15:43:22.319Z,19.68
2023-05-09T15:45:49.830Z,20.59
2023-05-09T15:48:17.652Z,20.32
2023-05-09T15:50:45.792Z,21.91
2023-05-09T15:53:15.555Z,21.11
2023-05-09T15:55:43.722Z,21.81
2023-05-09T15:58:11.250Z,21.09
2023-05-09T16:00:39.725Z,20.16
2023-05-09T16:03:08.065Z,19.93
2023-05-09T16:05:35.643Z,19.76
2023-05-09T16:08:03.169Z,20.35
2023-05-09T16:10:32.019Z,20.31
2023-05-09T16:12:59.584Z,20.77
2023-05-09T16:15:27.557Z,20.43
2023-05-09T16:17:55.054Z,20.89
2023-05-09T16:20:22.921Z,20.61
2023-05-09T16:22:50.515Z,20.79
2023-05-09T16:25:18.190Z,20.20
2023-05-09T16:27:46.969Z,20.11
2023-05-09T16:30:16.265Z,21.64
2023-05-09T16:32:44.601Z,20.32
2023-05-09T16:35:12.498Z,20.06
2023-05-09T16:37:40.007Z,20.15
2023-05-09T16:40:08.471Z,20.46
2023-05-09T16:42:36.076Z,20.22
2023-05-09T16:45:05.596Z,21.78
2023-05-09T16:47:33.142Z,19.73
2023-05-09T16:50:00.681Z,20.40
2023-05-09T16:52:28.269Z,20.20
2023-05-09T16:54:55.745Z,20.00
2023-05-09T16:57:23.221Z,20.35
2023-05-09T16:59:50.699Z,20.17
2023-05-09T17:02:19.495Z,19.86
2023-05-09T17:04:47.075Z,19.75
2023-05-09T17:07:15.537Z,19.48
2023-05-09T17:09:43.163Z,20.49
2023-05-09T17:12:16.277Z,19.60
2023-05-09T17:14:43.809Z,20.36
2023-05-09T17:17:11.299Z,19.53
2023-05-09T17:19:40.688Z,19.98
2023-05-09T17:22:08.307Z,19.56
2023-05-09T17:24:35.823Z,19.97
2023-05-09T17:27:03.589Z,19.75
2023-05-09T17:29:31.216Z,19.22
2023-05-09T17:32:00.595Z,19.48
2023-05-09T17:34:28.412Z,19.59
2023-05-09T17:36:57.197Z,18.94
2023-05-09T17:39:24.877Z,19.26
2023-05-09T17:41:52.388Z,19.33
2023-05-09T17:44:19.941Z,18.87
2023-05-09T17:46:49.020Z,18.76
2023-05-09T17:49:16.821Z,19.13
2023-05-09T17:51:44.286Z,19.70
2023-05-09T17:54:13.390Z,18.49
2023-05-09T17:56:40.880Z,18.17
2023-05-09T17:59:08.703Z,18.47
2023-05-09T18:01:36.233Z,18.24
2023-05-09T18:04:03.741Z,18.63
2023-05-09T18:06:31.284Z,18.05
2023-05-09T18:08:58.782Z,18.03
2023-05-09T18:11:27.566Z,17.65
2023-05-09T18:13:55.738Z,17.98
2023-05-09T18:16:23.238Z,17.89
2023-05-09T18:18:50.854Z,18.03
2023-05-09T18:21:18.336Z,17.76
2023-05-09T18:23:45.779Z,17.82
2023-05-09T18:26:13.259Z,18.14
2023-05-09T18:28:42.044Z,18.02
2023-05-09T18:31:11.773Z,17.64
2023-05-09T18:33:39.784Z,17.86
2023-05-09T18:36:08.834Z,17.05
2023-05-09T18:38:38.269Z,17.44
2023-05-09T18:41:07.741Z,16.88
2023-05-09T18:43:35.353Z,17.26
2023-05-09T18:46:05.063Z,17.06
2023-05-09T18:48:33.453Z,16.84
2023-05-09T18:51:00.982Z,16.51
2023-05-09T18:53:28.903Z,16.44
2023-05-09T18:55:57.164Z,16.51
2023-05-09T18:58:25.512Z,16.30
2023-05-09T19:00:53.642Z,16.11
2023-05-09T19:03:25.021Z,16.10
2023-05-09T19:05:52.584Z,16.25
2023-05-09T19:08:20.087Z,16.32
2023-05-09T19:10:47.536Z,16.00
2023-05-09T19:13:16.543Z,15.85
2023-05-09T19:15:44.295Z,16.21
2023-05-09T19:18:12.677Z,16.20
2023-05-09T19:20:41.511Z,15.95
2023-05-09T19:23:09.071Z,16.00
2023-05-09T19:25:37.662Z,15.88
2023-05-09T19:28:05.223Z,15.85
2023-05-09T19:30:33.401Z,15.76
2023-05-09T19:33:01.016Z,15.86
2023-05-09T19:35:28.537Z,15.71
2023-05-09T19:37:57.550Z,15.60
2023-05-09T19:40:25.004Z,15.57
2023-05-09T19:42:52.471Z,15.38
2023-05-09T19:45:20.403Z,15.54
2023-05-09T19:47:48.044Z,15.60
2023-05-09T19:50:15.801Z,15.32
2023-05-09T19:52:43.501Z,15.20
2023-05-09T19:55:12.728Z,15.59
2023-05-09T19:57:40.311Z,15.11
2023-05-09T20:00:08.836Z,15.21
2023-05-09T20:02:36.397Z,15.19
2023-05-09T20:05:03.957Z,15.26
2023-05-09T20:07:31.451Z,15.19
2023-05-09T20:09:58.970Z,15.37
2023-05-09T20:12:30.070Z,15.10
2023-05-09T20:14:57.946Z,15.12
2023-05-09T20:17:25.401Z,15.10
2023-05-09T20:19:52.978Z,14.92
2023-05-09T20:22:20.608Z,14.90
2023-05-09T20:24:48.078Z,15.13
2023-05-09T20:27:15.568Z,14.67
2023-05-09T20:29:44.469Z,14.70
2023-05-09T20:32:12.471Z,14.90
2023-05-09T20:34:40.009Z,14.78
2023-05-09T20:37:07.686Z,14.90
2023-05-09T20:39:35.187Z,14.59
2023-05-09T20:42:03.302Z,14.98
2023-05-09T20:44:30.874Z,14.53
2023-05-09T20:46:59.748Z,14.53
2023-05-09T20:49:27.301Z,14.38
2023-05-09T20:51:55.177Z,14.36
2023-05-09T20:54:23.927Z,14.43
2023-05-09T20:56:51.700Z,14.25
2023-05-09T20:59:19.178Z,14.21
2023-05-09T21:01:46.879Z,14.30
2023-05-09T21:04:15.946Z,14.26
2023-05-09T21:06:43.421Z,14.22
2023-05-09T21:09:11.265Z,14.16
2023-05-09T21:11:39.641Z,14.08
2023-05-09T21:14:09.261Z,14.06
2023-05-09T21:16:36.820Z,14.27
2023-05-09T21:19:05.309Z,14.06
2023-05-09T21:21:34.184Z,14.08
2023-05-09T21:24:04.177Z,14.02
2023-05-09T21:26:31.737Z,14.00
2023-05-09T21:28:59.227Z,13.93
2023-05-09T21:31:26.801Z,13.95
2023-05-09T21:33:54.338Z,13.94
2023-05-09T21:36:21.813Z,13.91
2023-05-09T21:38:50.896Z,14.02
2023-05-09T21:41:18.406Z,14.23
2023-05-09T21:43:45.930Z,14.03
2023-05-09T21:46:13.432Z,13.95
2023-05-09T21:48:41.056Z,13.83
2023-05-09T21:51:09.582Z,13.74
2023-05-09T21:53:37.076Z,13.97
2023-05-09T21:56:06.660Z,13.74
2023-05-09T21:58:34.145Z,13.62
2023-05-09T22:01:01.604Z,13.74
2023-05-09T22:03:29.149Z,13.63
2023-05-09T22:05:56.733Z,13.68
2023-05-09T22:08:24.279Z,13.69
2023-05-09T22:10:51.863Z,13.58
2023-05-09T22:13:20.840Z,13.48
2023-05-09T22:15:48.440Z,13.49
2023-05-09T22:18:16.011Z,13.55
2023-05-09T22:20:43.490Z,13.38
2023-05-09T22:23:11.250Z,13.48
2023-05-09T22:25:39.359Z,13.32
2023-05-09T22:28:06.877Z,13.35
2023-05-09T22:30:36.122Z,13.34
2023-05-09T22:33:03.801Z,13.18
2023-05-09T22:35:31.318Z,13.38
2023-05-09T22:37:58.791Z,13.10
2023-05-09T22:40:31.752Z,13.26
2023-05-09T22:42:59.224Z,13.20
2023-05-09T22:45:26.745Z,13.11
2023-05-09T22:47:55.588Z,13.06
2023-05-09T22:50:23.115Z,13.03
2023-05-09T22:52:50.708Z,13.09
2023-05-09T22:55:18.399Z,12.90
2023-05-09T22:57:45.854Z,12.87
2023-05-09T23:00:14.831Z,12.82
2023-05-09T23:02:42.665Z,12.87
2023-05-09T23:05:11.669Z,12.75
2023-05-09T23:07:39.160Z,12.93
2023-05-09T23:10:07.229Z,12.85
2023-05-09T23:12:34.703Z,12.57
2023-05-09T23:15:02.197Z,12.62
2023-05-09T23:17:29.729Z,12.70
2023-05-09T23:19:57.244Z,12.71
2023-05-09T23:22:26.445Z,12.64
2023-05-09T23:24:53.894Z,12.56
2023-05-09T23:27:21.546Z,12.55
2023-05-09T23:29:49.192Z,12.57
2023-05-09T23:32:16.665Z,12.51
2023-05-09T23:34:44.145Z,12.63
2023-05-09T23:37:11.873Z,12.75
2023-05-09T23:39:40.745Z,12.50
2023-05-09T23:42:08.751Z,12.58
2023-05-09T23:44:36.258Z,12.49
2023-05-09T23:47:04.016Z,12.69
2023-05-09T23:49:31.725Z,12.60
2023-05-09T23:51:59.207Z,12.57
2023-05-09T23:54:26.948Z,12.47
2023-05-09T23:56:57.775Z,12.56
2023-05-09T23:59:25.246Z,12.38
